sensor_id;sensor_type;location;lat;lon;timestamp;pressure;altitude;pressure_sealevel;temperature;humidity
54882;BME280;40775;51.448;4.742;2023-06-22T00:01:21;101794.13;;;20.79;100.00
54882;BME280;40775;51.448;4.742;2023-06-22T00:03:52;101799.47;;;20.76;100.00
54882;BME280;40775;51.448;4.742;2023-06-22T00:06:19;101788.88;;;20.65;100.00
54882;BME280;40775;51.448;4.742;2023-06-22T00:08:47;101797.78;;;20.65;100.00
54882;BME280;40775;51.448;4.742;2023-06-22T00:11:14;101789.75;;;20.67;100.00
54882;BME280;40775;51.448;4.742;2023-06-22T00:13:41;101793.34;;;20.64;100.00
54882;BME280;40775;51.448;4.742;2023-06-22T00:16:09;101788.09;;;20.48;100.00
54882;BME280;40775;51.448;4.742;2023-06-22T00:18:36;101788.09;;;20.48;100.00
54882;BME280;40775;51.448;4.742;2023-06-22T00:21:03;101788.94;;;20.51;100.00
54882;BME280;40775;51.448;4.742;2023-06-22T00:23:33;101802.31;;;20.47;100.00
54882;BME280;40775;51.448;4.742;2023-06-22T00:26:02;101798.75;;;20.46;100.00
54882;BME280;40775;51.448;4.742;2023-06-22T00:28:29;101797.84;;;20.58;100.00
54882;BME280;40775;51.448;4.742;2023-06-22T00:30:59;101788.94;;;20.57;100.00
54882;BME280;40775;51.448;4.742;2023-06-22T00:33:28;101788.94;;;20.51;100.00
54882;BME280;40775;51.448;4.742;2023-06-22T00:35:55;101793.41;;;20.49;100.00
54882;BME280;40775;51.448;4.742;2023-06-22T00:38:22;101797.91;;;20.38;100.00
54882;BME280;40775;51.448;4.742;2023-06-22T00:40:49;101792.63;;;20.29;100.00
54882;BME280;40775;51.448;4.742;2023-06-22T00:43:17;101802.38;;;20.27;100.00
54882;BME280;40775;51.448;4.742;2023-06-22T00:45:44;101786.41;;;20.18;100.00
54882;BME280;40775;51.448;4.742;2023-06-22T00:48:12;101777.63;;;20.00;100.00
54882;BME280;40775;51.448;4.742;2023-06-22T00:50:41;101784.75;;;19.88;100.00
54882;BME280;40775;51.448;4.742;2023-06-22T00:53:09;101778.56;;;19.83;100.00
54882;BME280;40775;51.448;4.742;2023-06-22T00:55:42;101766.97;;;19.90;100.00
54882;BME280;40775;51.448;4.742;2023-06-22T00:58:14;101783.81;;;19.96;100.00
54882;BME280;40775;51.448;4.742;2023-06-22T01:00:41;101775.84;;;19.95;100.00
54882;BME280;40775;51.448;4.742;2023-06-22T01:03:10;101785.63;;;19.88;100.00
54882;BME280;40775;51.448;4.742;2023-06-22T01:05:39;101782.94;;;19.97;100.00
54882;BME280;40775;51.448;4.742;2023-06-22T01:08:33;101782.03;;;19.98;100.00
54882;BME280;40775;51.448;4.742;2023-06-22T01:11:28;101772.31;;;19.91;100.00
54882;BME280;40775;51.448;4.742;2023-06-22T01:14:28;101786.50;;;19.92;100.00
54882;BME280;40775;51.448;4.742;2023-06-22T01:17:00;101772.31;;;19.91;100.00
54882;BME280;40775;51.448;4.742;2023-06-22T01:19:49;101772.34;;;19.81;100.00
54882;BME280;40775;51.448;4.742;2023-06-22T01:22:30;101765.25;;;19.72;100.00
54882;BME280;40775;51.448;4.742;2023-06-22T01:25:11;101770.59;;;19.69;100.00
54882;BME280;40775;51.448;4.742;2023-06-22T01:30:43;101771.50;;;19.72;100.00
54882;BME280;40775;51.448;4.742;2023-06-22T01:33:13;101771.47;;;19.71;100.00
54882;BME280;40775;51.448;4.742;2023-06-22T01:35:41;101769.69;;;19.78;100.00
54882;BME280;40775;51.448;4.742;2023-06-22T01:38:09;101773.22;;;19.81;100.00
54882;BME280;40775;51.448;4.742;2023-06-22T01:40:37;101767.06;;;19.73;100.00
54882;BME280;40775;51.448;4.742;2023-06-22T01:43:05;101767.03;;;19.71;100.00
54882;BME280;40775;51.448;4.742;2023-06-22T01:45:33;101772.34;;;19.68;100.00
54882;BME280;40775;51.448;4.742;2023-06-22T01:48:00;101775.91;;;19.78;100.00
54882;BME280;40775;51.448;4.742;2023-06-22T01:50:28;101770.56;;;19.80;100.00
54882;BME280;40775;51.448;4.742;2023-06-22T01:52:56;101775.91;;;19.78;100.00
54882;BME280;40775;51.448;4.742;2023-06-22T01:55:23;101769.72;;;19.73;100.00
54882;BME280;40775;51.448;4.742;2023-06-22T01:57:52;101768.81;;;19.69;100.00
54882;BME280;40775;51.448;4.742;2023-06-22T02:00:22;101777.69;;;19.64;100.00
54882;BME280;40775;51.448;4.742;2023-06-22T02:03:11;101776.81;;;19.68;100.00
54882;BME280;40775;51.448;4.742;2023-06-22T02:05:52;101775.06;;;19.61;100.00
54882;BME280;40775;51.448;4.742;2023-06-22T02:08:28;101774.16;;;19.57;100.00
54882;BME280;40775;51.448;4.742;2023-06-22T02:10:58;101775.94;;;19.52;100.00
54882;BME280;40775;51.448;4.742;2023-06-22T02:13:26;101774.16;;;19.45;100.00
54882;BME280;40775;51.448;4.742;2023-06-22T02:15:54;101763.50;;;19.37;100.00
54882;BME280;40775;51.448;4.742;2023-06-22T02:18:21;101770.63;;;19.31;100.00
54882;BME280;40775;51.448;4.742;2023-06-22T02:20:48;101762.63;;;19.32;100.00
54882;BME280;40775;51.448;4.742;2023-06-22T02:23:16;101746.66;;;19.29;100.00
54882;BME280;40775;51.448;4.742;2023-06-22T02:25:43;101754.66;;;19.25;100.00
54882;BME280;40775;51.448;4.742;2023-06-22T02:28:11;101754.66;;;19.23;100.00
54882;BME280;40775;51.448;4.742;2023-06-22T02:30:38;101772.41;;;19.23;100.00
54882;BME280;40775;51.448;4.742;2023-06-22T02:33:05;101762.66;;;19.23;100.00
54882;BME280;40775;51.448;4.742;2023-06-22T02:35:32;101765.31;;;19.26;100.00
54882;BME280;40775;51.448;4.742;2023-06-22T02:38:04;101770.63;;;19.28;100.00
54882;BME280;40775;51.448;4.742;2023-06-22T02:40:31;101767.06;;;19.27;100.00
54882;BME280;40775;51.448;4.742;2023-06-22T02:42:59;101762.66;;;19.20;100.00
54882;BME280;40775;51.448;4.742;2023-06-22T02:45:29;101772.38;;;19.15;100.00
54882;BME280;40775;51.448;4.742;2023-06-22T02:47:56;101765.31;;;19.09;100.00
54882;BME280;40775;51.448;4.742;2023-06-22T02:50:24;101759.09;;;19.06;100.00
54882;BME280;40775;51.448;4.742;2023-06-22T02:52:52;101744.00;;;19.05;100.00
54882;BME280;40775;51.448;4.742;2023-06-22T02:55:19;101747.56;;;19.02;100.00
54882;BME280;40775;51.448;4.742;2023-06-22T02:57:46;101739.59;;;18.99;100.00
54882;BME280;40775;51.448;4.742;2023-06-22T03:00:14;101743.13;;;18.98;100.00
54882;BME280;40775;51.448;4.742;2023-06-22T03:02:48;101733.38;;;18.94;100.00
54882;BME280;40775;51.448;4.742;2023-06-22T03:05:17;101736.91;;;18.89;100.00
54882;BME280;40775;51.448;4.742;2023-06-22T03:07:45;101730.69;;;18.83;100.00
54882;BME280;40775;51.448;4.742;2023-06-22T03:10:14;101736.00;;;18.85;100.00
54882;BME280;40775;51.448;4.742;2023-06-22T03:12:42;101724.47;;;18.83;100.00
54882;BME280;40775;51.448;4.742;2023-06-22T03:15:11;101730.69;;;18.87;100.00
54882;BME280;40775;51.448;4.742;2023-06-22T03:17:39;101730.69;;;18.83;100.00
54882;BME280;40775;51.448;4.742;2023-06-22T03:20:09;101725.38;;;18.80;100.00
54882;BME280;40775;51.448;4.742;2023-06-22T03:22:41;101724.50;;;18.80;100.00
54882;BME280;40775;51.448;4.742;2023-06-22T03:25:09;101723.59;;;18.82;100.00
54882;BME280;40775;51.448;4.742;2023-06-22T03:27:37;101723.59;;;18.81;100.00
54882;BME280;40775;51.448;4.742;2023-06-22T03:30:07;101728.03;;;18.79;100.00
54882;BME280;40775;51.448;4.742;2023-06-22T03:32:35;101723.59;;;18.73;100.00
54882;BME280;40775;51.448;4.742;2023-06-22T03:35:02;101720.94;;;18.72;100.00
54882;BME280;40775;51.448;4.742;2023-06-22T03:37:30;101724.50;;;18.71;100.00
54882;BME280;40775;51.448;4.742;2023-06-22T03:39:57;101725.38;;;18.65;100.00
54882;BME280;40775;51.448;4.742;2023-06-22T03:42:24;101724.50;;;18.63;100.00
54882;BME280;40775;51.448;4.742;2023-06-22T03:44:51;101739.50;;;18.60;100.00
54882;BME280;40775;51.448;4.742;2023-06-22T03:47:18;101720.88;;;18.61;100.00
54882;BME280;40775;51.448;4.742;2023-06-22T03:49:45;101720.88;;;18.57;100.00
54882;BME280;40775;51.448;4.742;2023-06-22T03:52:12;101727.97;;;18.56;100.00
54882;BME280;40775;51.448;4.742;2023-06-22T03:54:40;101724.44;;;18.52;100.00
54882;BME280;40775;51.448;4.742;2023-06-22T03:57:07;101735.94;;;18.56;100.00
54882;BME280;40775;51.448;4.742;2023-06-22T03:59:34;101734.19;;;18.60;100.00
54882;BME280;40775;51.448;4.742;2023-06-22T04:13:45;101710.25;;;18.61;100.00
54882;BME280;40775;51.448;4.742;2023-06-22T04:16:12;101713.84;;;18.65;100.00
54882;BME280;40775;51.448;4.742;2023-06-22T04:18:39;101721.84;;;18.66;100.00
54882;BME280;40775;51.448;4.742;2023-06-22T04:21:07;101730.69;;;18.67;100.00
54882;BME280;40775;51.448;4.742;2023-06-22T04:23:34;101730.69;;;18.73;100.00
54882;BME280;40775;51.448;4.742;2023-06-22T04:26:22;101724.50;;;18.71;100.00
54882;BME280;40775;51.448;4.742;2023-06-22T04:28:50;101726.28;;;18.73;100.00
54882;BME280;40775;51.448;4.742;2023-06-22T04:31:22;101730.69;;;18.73;100.00
54882;BME280;40775;51.448;4.742;2023-06-22T04:33:54;101738.69;;;18.79;100.00
54882;BME280;40775;51.448;4.742;2023-06-22T04:36:21;101744.00;;;18.85;100.00
54882;BME280;40775;51.448;4.742;2023-06-22T04:38:52;101741.34;;;18.90;100.00
54882;BME280;40775;51.448;4.742;2023-06-22T04:41:19;101738.66;;;18.90;100.00
54882;BME280;40775;51.448;4.742;2023-06-22T04:43:51;101745.81;;;18.94;100.00
54882;BME280;40775;51.448;4.742;2023-06-22T04:46:21;101742.25;;;18.96;100.00
54882;BME280;40775;51.448;4.742;2023-06-22T04:48:47;101746.69;;;18.99;100.00
54882;BME280;40775;51.448;4.742;2023-06-22T04:51:14;101742.25;;;19.04;100.00
54882;BME280;40775;51.448;4.742;2023-06-22T04:53:41;101734.25;;;19.07;100.00
54882;BME280;40775;51.448;4.742;2023-06-22T04:56:09;101743.13;;;19.10;100.00
54882;BME280;40775;51.448;4.742;2023-06-22T04:58:36;101741.34;;;19.14;100.00
54882;BME280;40775;51.448;4.742;2023-06-22T05:01:03;101741.34;;;19.14;100.00
54882;BME280;40775;51.448;4.742;2023-06-22T05:03:31;101741.34;;;19.22;100.00
54882;BME280;40775;51.448;4.742;2023-06-22T05:05:58;101738.69;;;19.22;100.00
54882;BME280;40775;51.448;4.742;2023-06-22T05:08:25;101723.59;;;19.25;100.00
54882;BME280;40775;51.448;4.742;2023-06-22T05:10:53;101720.91;;;19.31;100.00
54882;BME280;40775;51.448;4.742;2023-06-22T05:13:32;101722.69;;;19.35;100.00
54882;BME280;40775;51.448;4.742;2023-06-22T05:15:59;101729.78;;;19.39;100.00
54882;BME280;40775;51.448;4.742;2023-06-22T05:18:30;101728.00;;;19.54;100.00
54882;BME280;40775;51.448;4.742;2023-06-22T05:20:58;101725.34;;;19.58;100.00
54882;BME280;40775;51.448;4.742;2023-06-22T05:23:26;101728.88;;;19.59;100.00
54882;BME280;40775;51.448;4.742;2023-06-22T05:25:53;101731.53;;;19.65;100.00
54882;BME280;40775;51.448;4.742;2023-06-22T05:28:21;101725.31;;;19.73;100.00
54882;BME280;40775;51.448;4.742;2023-06-22T05:30:50;101726.13;;;19.85;100.00
54882;BME280;40775;51.448;4.742;2023-06-22T05:33:17;101724.34;;;19.90;100.00
54882;BME280;40775;51.448;4.742;2023-06-22T05:35:44;101718.09;;;20.01;100.00
54882;BME280;40775;51.448;4.742;2023-06-22T05:38:11;101716.25;;;20.10;100.00
54882;BME280;40775;51.448;4.742;2023-06-22T05:40:38;101721.53;;;20.19;100.00
54882;BME280;40775;51.448;4.742;2023-06-22T05:43:05;101725.00;;;20.36;100.00
54882;BME280;40775;51.448;4.742;2023-06-22T05:45:32;101742.47;;;20.89;100.00
54882;BME280;40775;51.448;4.742;2023-06-22T05:47:59;101729.59;;;22.13;100.00
54882;BME280;40775;51.448;4.742;2023-06-22T05:50:26;101717.16;;;22.71;100.00
54882;BME280;40775;51.448;4.742;2023-06-22T05:52:54;101706.66;;;23.14;100.00
54882;BME280;40775;51.448;4.742;2023-06-22T05:55:21;101699.84;;;23.44;100.00
54882;BME280;40775;51.448;4.742;2023-06-22T05:57:48;101707.41;;;23.70;100.00
54882;BME280;40775;51.448;4.742;2023-06-22T06:00:15;101710.59;;;23.89;100.00
54882;BME280;40775;51.448;4.742;2023-06-22T06:02:42;101708.50;;;24.03;100.00
54882;BME280;40775;51.448;4.742;2023-06-22T06:05:13;101711.78;;;24.17;100.00
54882;BME280;40775;51.448;4.742;2023-06-22T06:07:45;101711.56;;;24.26;100.00
54882;BME280;40775;51.448;4.742;2023-06-22T06:10:12;101703.31;;;24.35;100.00
54882;BME280;40775;51.448;4.742;2023-06-22T06:12:39;101691.56;;;24.43;100.00
54882;BME280;40775;51.448;4.742;2023-06-22T06:15:07;101680.66;;;24.49;100.00
54882;BME280;40775;51.448;4.742;2023-06-22T06:17:49;101682.22;;;24.57;100.00
54882;BME280;40775;51.448;4.742;2023-06-22T06:20:23;101689.19;;;24.66;100.00
54882;BME280;40775;51.448;4.742;2023-06-22T06:22:51;101688.16;;;24.72;100.00
54882;BME280;40775;51.448;4.742;2023-06-22T06:25:18;101670.16;;;24.75;100.00
54882;BME280;40775;51.448;4.742;2023-06-22T06:27:47;101672.81;;;24.77;100.00
54882;BME280;40775;51.448;4.742;2023-06-22T06:30:17;101671.75;;;24.82;100.00
54882;BME280;40775;51.448;4.742;2023-06-22T06:32:45;101671.59;;;24.88;100.00
54882;BME280;40775;51.448;4.742;2023-06-22T06:35:15;101675.16;;;24.89;100.00
54882;BME280;40775;51.448;4.742;2023-06-22T06:37:47;101670.59;;;24.92;100.00
54882;BME280;40775;51.448;4.742;2023-06-22T06:40:17;101671.47;;;24.94;100.00
54882;BME280;40775;51.448;4.742;2023-06-22T06:42:47;101670.50;;;24.97;100.00
54882;BME280;40775;51.448;4.742;2023-06-22T06:45:22;101674.84;;;25.03;100.00
54882;BME280;40775;51.448;4.742;2023-06-22T06:47:53;101671.25;;;25.04;100.00
54882;BME280;40775;51.448;4.742;2023-06-22T06:50:21;101660.47;;;25.05;100.00
54882;BME280;40775;51.448;4.742;2023-06-22T06:52:48;101662.19;;;25.08;100.00
54882;BME280;40775;51.448;4.742;2023-06-22T06:55:17;101653.19;;;25.09;100.00
54882;BME280;40775;51.448;4.742;2023-06-22T06:57:44;101661.22;;;25.10;100.00
54882;BME280;40775;51.448;4.742;2023-06-22T07:00:15;101656.69;;;25.12;100.00
54882;BME280;40775;51.448;4.742;2023-06-22T07:02:44;101648.59;;;25.12;100.00
54882;BME280;40775;51.448;4.742;2023-06-22T07:05:12;101638.75;;;25.13;100.00
54882;BME280;40775;51.448;4.742;2023-06-22T07:07:40;101652.09;;;25.16;100.00
54882;BME280;40775;51.448;4.742;2023-06-22T07:10:09;101656.53;;;25.17;100.00
54882;BME280;40775;51.448;4.742;2023-06-22T07:12:36;101663.63;;;25.19;100.00
54882;BME280;40775;51.448;4.742;2023-06-22T07:15:06;101665.44;;;25.20;100.00
54882;BME280;40775;51.448;4.742;2023-06-22T07:17:35;101669.00;;;25.21;100.00
54882;BME280;40775;51.448;4.742;2023-06-22T07:20:04;101669.88;;;25.21;100.00
54882;BME280;40775;51.448;4.742;2023-06-22T07:22:43;101671.59;;;25.24;100.00
54882;BME280;40775;51.448;4.742;2023-06-22T07:25:11;101665.34;;;25.23;100.00
54882;BME280;40775;51.448;4.742;2023-06-22T07:27:57;101663.53;;;25.24;100.00
54882;BME280;40775;51.448;4.742;2023-06-22T07:30:24;101658.16;;;25.24;100.00
54882;BME280;40775;51.448;4.742;2023-06-22T07:32:51;101659.03;;;25.24;100.00
54882;BME280;40775;51.448;4.742;2023-06-22T07:35:19;101649.19;;;25.25;100.00
54882;BME280;40775;51.448;4.742;2023-06-22T07:37:46;101654.56;;;25.25;100.00
54882;BME280;40775;51.448;4.742;2023-06-22T07:40:13;101634.81;;;25.26;100.00
54882;BME280;40775;51.448;4.742;2023-06-22T07:42:40;101637.50;;;25.26;100.00
54882;BME280;40775;51.448;4.742;2023-06-22T07:45:08;101618.69;;;25.26;100.00
54882;BME280;40775;51.448;4.742;2023-06-22T07:47:35;101610.63;;;25.26;100.00
54882;BME280;40775;51.448;4.742;2023-06-22T07:50:04;101604.28;;;25.29;100.00
54882;BME280;40775;51.448;4.742;2023-06-22T07:52:32;101601.59;;;25.29;100.00
54882;BME280;40775;51.448;4.742;2023-06-22T07:54:59;101600.69;;;25.28;100.00
54882;BME280;40775;51.448;4.742;2023-06-22T07:57:26;101596.22;;;25.29;100.00
54882;BME280;40775;51.448;4.742;2023-06-22T08:00:05;101593.47;;;25.30;100.00
54882;BME280;40775;51.448;4.742;2023-06-22T08:02:40;101589.84;;;25.31;100.00
54882;BME280;40775;51.448;4.742;2023-06-22T08:05:09;101580.88;;;25.32;100.00
54882;BME280;40775;51.448;4.742;2023-06-22T08:07:49;101578.22;;;25.31;100.00
54882;BME280;40775;51.448;4.742;2023-06-22T08:10:17;101572.84;;;25.31;100.00
54882;BME280;40775;51.448;4.742;2023-06-22T08:12:44;101579.09;;;25.31;100.00
54882;BME280;40775;51.448;4.742;2023-06-22T08:15:11;101570.13;;;25.32;100.00
54882;BME280;40775;51.448;4.742;2023-06-22T08:17:39;101578.19;;;25.32;100.00
54882;BME280;40775;51.448;4.742;2023-06-22T08:20:08;101577.25;;;25.33;100.00
54882;BME280;40775;51.448;4.742;2023-06-22T08:22:42;101580.88;;;25.32;100.00
54882;BME280;40775;51.448;4.742;2023-06-22T08:25:10;101582.63;;;25.33;100.00
54882;BME280;40775;51.448;4.742;2023-06-22T08:27:38;101584.44;;;25.33;100.00
54882;BME280;40775;51.448;4.742;2023-06-22T08:30:06;101567.44;;;25.32;100.00
54882;BME280;40775;51.448;4.742;2023-06-22T08:32:34;101576.31;;;25.34;100.00
54882;BME280;40775;51.448;4.742;2023-06-22T08:35:01;101568.25;;;25.34;100.00
54882;BME280;40775;51.448;4.742;2023-06-22T08:37:29;101569.13;;;25.35;100.00
54882;BME280;40775;51.448;4.742;2023-06-22T08:40:04;101560.19;;;25.34;100.00
54882;BME280;40775;51.448;4.742;2023-06-22T08:42:32;101557.50;;;25.34;100.00
54882;BME280;40775;51.448;4.742;2023-06-22T08:44:59;101560.16;;;25.36;100.00
54882;BME280;40775;51.448;4.742;2023-06-22T08:47:29;101555.66;;;25.36;100.00
54882;BME280;40775;51.448;4.742;2023-06-22T08:49:57;101559.28;;;25.35;100.00
54882;BME280;40775;51.448;4.742;2023-06-22T08:52:24;101557.50;;;25.34;100.00
54882;BME280;40775;51.448;4.742;2023-06-22T08:54:51;101563.72;;;25.36;100.00
54882;BME280;40775;51.448;4.742;2023-06-22T08:57:18;101565.47;;;25.37;100.00
54882;BME280;40775;51.448;4.742;2023-06-22T08:59:45;101560.97;;;25.38;100.00
54882;BME280;40775;51.448;4.742;2023-06-22T09:02:12;101560.09;;;25.37;100.00
54882;BME280;40775;51.448;4.742;2023-06-22T09:04:39;101561.03;;;25.36;100.00
54882;BME280;40775;51.448;4.742;2023-06-22T09:07:07;101561.88;;;25.38;100.00
54882;BME280;40775;51.448;4.742;2023-06-22T09:09:34;101557.41;;;25.37;100.00
54882;BME280;40775;51.448;4.742;2023-06-22T09:12:01;101555.66;;;25.36;100.00
54882;BME280;40775;51.448;4.742;2023-06-22T09:14:28;101556.53;;;25.37;100.00
54882;BME280;40775;51.448;4.742;2023-06-22T09:16:55;101549.41;;;25.36;100.00
54882;BME280;40775;51.448;4.742;2023-06-22T09:19:22;101561.91;;;25.37;100.00
54882;BME280;40775;51.448;4.742;2023-06-22T09:21:49;101560.09;;;25.37;100.00
54882;BME280;40775;51.448;4.742;2023-06-22T09:24:16;101556.47;;;25.38;100.00
54882;BME280;40775;51.448;4.742;2023-06-22T09:26:43;101549.41;;;25.36;100.00
54882;BME280;40775;51.448;4.742;2023-06-22T09:29:10;101555.66;;;25.36;100.00
54882;BME280;40775;51.448;4.742;2023-06-22T09:31:37;101558.28;;;25.38;100.00
54882;BME280;40775;51.448;4.742;2023-06-22T09:34:04;101552.91;;;25.38;100.00
54882;BME280;40775;51.448;4.742;2023-06-22T09:36:31;101562.75;;;25.39;100.00
54882;BME280;40775;51.448;4.742;2023-06-22T09:38:59;101557.41;;;25.37;100.00
54882;BME280;40775;51.448;4.742;2023-06-22T09:41:28;101547.53;;;25.38;100.00
54882;BME280;40775;51.448;4.742;2023-06-22T09:43:55;101555.56;;;25.39;100.00
54882;BME280;40775;51.448;4.742;2023-06-22T09:46:23;101552.91;;;25.38;100.00
54882;BME280;40775;51.448;4.742;2023-06-22T09:48:52;101551.06;;;25.40;100.00
54882;BME280;40775;51.448;4.742;2023-06-22T09:51:19;101546.56;;;25.40;100.00
54882;BME280;40775;51.448;4.742;2023-06-22T09:53:51;101552.78;;;25.42;100.00
54882;BME280;40775;51.448;4.742;2023-06-22T09:56:19;101545.59;;;25.43;100.00
54882;BME280;40775;51.448;4.742;2023-06-22T09:58:47;101553.69;;;25.41;100.00
54882;BME280;40775;51.448;4.742;2023-06-22T10:01:14;101553.75;;;25.40;100.00
54882;BME280;40775;51.448;4.742;2023-06-22T10:03:41;101553.66;;;25.43;100.00
54882;BME280;40775;51.448;4.742;2023-06-22T10:06:09;101567.97;;;25.43;100.00
54882;BME280;40775;51.448;4.742;2023-06-22T10:08:36;101559.06;;;25.41;100.00
54882;BME280;40775;51.448;4.742;2023-06-22T10:11:03;101564.50;;;25.40;100.00
54882;BME280;40775;51.448;4.742;2023-06-22T10:13:30;101565.38;;;25.40;100.00
54882;BME280;40775;51.448;4.742;2023-06-22T10:15:57;101574.28;;;25.42;100.00
54882;BME280;40775;51.448;4.742;2023-06-22T10:18:25;101580.59;;;25.41;100.00
54882;BME280;40775;51.448;4.742;2023-06-22T10:20:52;101580.59;;;25.41;100.00
54882;BME280;40775;51.448;4.742;2023-06-22T10:23:20;101582.44;;;25.39;100.00
54882;BME280;40775;51.448;4.742;2023-06-22T10:25:47;101585.97;;;25.41;100.00
54882;BME280;40775;51.448;4.742;2023-06-22T10:28:15;101596.72;;;25.41;100.00
54882;BME280;40775;51.448;4.742;2023-06-22T10:30:43;101590.47;;;25.41;100.00
54882;BME280;40775;51.448;4.742;2023-06-22T10:33:11;101594.03;;;25.41;100.00
54882;BME280;40775;51.448;4.742;2023-06-22T10:35:39;101604.78;;;25.41;100.00
54882;BME280;40775;51.448;4.742;2023-06-22T10:38:06;101600.34;;;25.40;100.00
54882;BME280;40775;51.448;4.742;2023-06-22T10:40:34;101610.16;;;25.41;100.00
54882;BME280;40775;51.448;4.742;2023-06-22T10:43:01;101607.47;;;25.41;100.00
54882;BME280;40775;51.448;4.742;2023-06-22T10:45:28;101606.59;;;25.41;100.00
54882;BME280;40775;51.448;4.742;2023-06-22T10:47:56;101608.34;;;25.42;100.00
54882;BME280;40775;51.448;4.742;2023-06-22T10:50:25;101613.72;;;25.42;100.00
54882;BME280;40775;51.448;4.742;2023-06-22T10:52:52;101620.88;;;25.43;100.00
54882;BME280;40775;51.448;4.742;2023-06-22T10:55:19;101627.13;;;25.43;100.00
54882;BME280;40775;51.448;4.742;2023-06-22T10:57:46;101620.00;;;25.42;100.00
54882;BME280;40775;51.448;4.742;2023-06-22T11:00:15;101628.00;;;25.44;100.00
54882;BME280;40775;51.448;4.742;2023-06-22T11:02:43;101633.34;;;25.45;100.00
54882;BME280;40775;51.448;4.742;2023-06-22T11:05:11;101633.34;;;25.45;100.00
54882;BME280;40775;51.448;4.742;2023-06-22T11:07:43;101627.06;;;25.45;100.00
54882;BME280;40775;51.448;4.742;2023-06-22T11:10:15;101614.59;;;25.42;100.00
54882;BME280;40775;51.448;4.742;2023-06-22T11:12:43;101608.31;;;25.43;100.00
54882;BME280;40775;51.448;4.742;2023-06-22T11:15:10;101596.66;;;25.43;100.00
54882;BME280;40775;51.448;4.742;2023-06-22T11:17:37;101589.50;;;25.43;100.00
54882;BME280;40775;51.448;4.742;2023-06-22T11:20:05;101580.50;;;25.44;100.00
54882;BME280;40775;51.448;4.742;2023-06-22T11:22:41;101584.16;;;25.42;100.00
54882;BME280;40775;51.448;4.742;2023-06-22T11:25:08;101582.44;;;25.39;100.00
54882;BME280;40775;51.448;4.742;2023-06-22T11:27:36;101574.41;;;25.38;100.00
54882;BME280;40775;51.448;4.742;2023-06-22T11:30:03;101577.16;;;25.36;100.00
54882;BME280;40775;51.448;4.742;2023-06-22T11:32:30;101572.66;;;25.37;100.00
54882;BME280;40775;51.448;4.742;2023-06-22T11:34:58;101562.00;;;25.34;100.00
54882;BME280;40775;51.448;4.742;2023-06-22T11:37:25;101562.00;;;25.34;100.00
54882;BME280;40775;51.448;4.742;2023-06-22T11:39:52;101558.44;;;25.33;100.00
54882;BME280;40775;51.448;4.742;2023-06-22T11:42:32;101544.06;;;25.34;100.00
54882;BME280;40775;51.448;4.742;2023-06-22T11:44:59;101552.13;;;25.34;100.00
54882;BME280;40775;51.448;4.742;2023-06-22T11:47:26;101537.84;;;25.32;100.00
54882;BME280;40775;51.448;4.742;2023-06-22T11:49:53;101538.75;;;25.33;100.00
54882;BME280;40775;51.448;4.742;2023-06-22T11:52:21;101536.94;;;25.33;100.00
54882;BME280;40775;51.448;4.742;2023-06-22T11:54:48;101527.97;;;25.33;100.00
54882;BME280;40775;51.448;4.742;2023-06-22T11:57:15;101532.47;;;25.32;100.00
54882;BME280;40775;51.448;4.742;2023-06-22T11:59:42;101526.13;;;25.35;100.00
54882;BME280;40775;51.448;4.742;2023-06-22T12:02:09;101519.88;;;25.34;100.00
54882;BME280;40775;51.448;4.742;2023-06-22T12:04:36;101519.88;;;25.34;100.00
54882;BME280;40775;51.448;4.742;2023-06-22T12:07:04;101520.81;;;25.33;100.00
54882;BME280;40775;51.448;4.742;2023-06-22T12:09:31;101512.75;;;25.33;100.00
54882;BME280;40775;51.448;4.742;2023-06-22T12:11:58;101516.41;;;25.31;100.00
54882;BME280;40775;51.448;4.742;2023-06-22T12:14:25;101521.72;;;25.32;100.00
54882;BME280;40775;51.448;4.742;2023-06-22T12:16:52;101514.59;;;25.31;100.00
54882;BME280;40775;51.448;4.742;2023-06-22T12:19:19;101513.72;;;25.31;100.00
54882;BME280;40775;51.448;4.742;2023-06-22T12:21:46;101512.84;;;25.30;100.00
54882;BME280;40775;51.448;4.742;2023-06-22T12:24:13;101508.34;;;25.31;100.00
54882;BME280;40775;51.448;4.742;2023-06-22T12:26:40;101504.72;;;25.32;100.00
54882;BME280;40775;51.448;4.742;2023-06-22T12:29:07;101494.06;;;25.29;100.00
54882;BME280;40775;51.448;4.742;2023-06-22T12:31:35;101494.94;;;25.29;100.00
54882;BME280;40775;51.448;4.742;2023-06-22T12:34:02;101487.81;;;25.28;100.00
54882;BME280;40775;51.448;4.742;2023-06-22T12:36:29;101480.63;;;25.29;100.00
54882;BME280;40775;51.448;4.742;2023-06-22T12:38:56;101481.56;;;25.27;100.00
54882;BME280;40775;51.448;4.742;2023-06-22T12:41:24;101486.06;;;25.27;100.00
54882;BME280;40775;51.448;4.742;2023-06-22T12:43:51;101481.59;;;25.26;100.00
54882;BME280;40775;51.448;4.742;2023-06-22T12:46:18;101482.53;;;25.25;100.00
54882;BME280;40775;51.448;4.742;2023-06-22T12:48:45;101480.56;;;25.30;100.00
54882;BME280;40775;51.448;4.742;2023-06-22T12:51:12;101476.19;;;25.27;100.00
54882;BME280;40775;51.448;4.742;2023-06-22T12:53:39;101474.41;;;25.26;100.00
54882;BME280;40775;51.448;4.742;2023-06-22T12:56:06;101474.41;;;25.26;100.00
54882;BME280;40775;51.448;4.742;2023-06-22T12:58:33;101465.47;;;25.26;100.00
54882;BME280;40775;51.448;4.742;2023-06-22T13:01:00;101463.66;;;25.26;100.00
54882;BME280;40775;51.448;4.742;2023-06-22T13:03:27;101458.28;;;25.26;100.00